Time;durP1;ratioP1;P1;durP2;ratioP2;P2;SDS_P1;SDS_P2;PMS_P1;PMS_P2;Temp;Humidity;BMP_temperature;BMP_pressure;BME280_temperature;BME280_humidity;BME280_pressure;Samples;Min_cycle;Max_cycle;Signal;HPM_P1;HPM_P2
2021/11/18 00:04:31;;;;;;;10.38;5.28;;;;;;;6.80;85.08;101639.22;20993728;28;20102;-71
2021/11/18 00:14:33;;;;;;;10.23;5.60;;;;;;;6.79;85.90;101660.88;20995152;28;20382;-71
2021/11/18 00:24:34;;;;;;;11.40;5.55;;;;;;;6.84;85.53;101650.56;20993434;28;20106;-69
2021/11/18 00:34:36;;;;;;;9.80;5.65;;;;;;;6.88;84.67;101648.06;20992260;28;20098;-69
2021/11/18 00:44:38;;;;;;;11.85;5.35;;;;;;;6.85;85.33;101635.00;20992821;28;20386;-70
2021/11/18 00:54:40;;;;;;;12.55;5.65;;;;;;;6.81;84.67;101635.78;20989886;28;20079;-69
2021/11/18 01:04:43;;;;;;;12.02;5.20;;;;;;;6.81;84.21;101646.19;20989896;28;20052;-69
2021/11/18 01:14:46;;;;;;;12.48;5.57;;;;;;;6.88;84.05;101653.25;20989174;28;20044;-71
2021/11/18 01:24:48;;;;;;;10.55;5.80;;;;;;;6.87;84.51;101684.50;20987888;28;20105;-70
2021/11/18 01:34:49;;;;;;;12.90;6.78;;;;;;;6.82;84.85;101660.09;20988124;28;20493;-71
2021/11/18 01:44:52;;;;;;;11.05;5.93;;;;;;;6.83;84.83;101660.09;20986885;28;20416;-71
2021/11/18 01:54:55;;;;;;;10.98;6.40;;;;;;;6.86;85.05;101678.41;20985984;28;20453;-71
2021/11/18 02:05:15;;;;;;;12.32;5.80;;;;;;;6.84;85.02;101677.47;20984352;28;20083;-71
2021/11/18 02:15:29;;;;;;;13.00;6.88;;;;;;;6.84;84.92;101690.50;20984690;28;20045;-71
2021/11/18 02:25:32;;;;;;;10.32;6.57;;;;;;;6.79;85.52;101693.84;20984663;28;20044;-70
2021/11/18 02:35:36;;;;;;;12.75;7.13;;;;;;;6.84;85.37;101702.63;20984310;28;20098;-71
2021/11/18 02:45:38;;;;;;;11.00;7.20;;;;;;;6.76;86.13;101699.91;20982755;28;20048;-70
2021/11/18 02:55:42;;;;;;;14.82;6.55;;;;;;;6.75;86.54;101695.50;20982634;28;20543;-70
2021/11/18 03:05:45;;;;;;;13.23;6.97;;;;;;;6.73;86.44;101699.81;20979922;28;20041;-70
2021/11/18 03:15:46;;;;;;;13.90;7.47;;;;;;;6.64;86.77;101710.91;20993604;28;20117;-71
2021/11/18 03:25:49;;;;;;;13.50;6.75;;;;;;;6.72;87.03;101711.09;20998192;28;20067;-71
2021/11/18 03:35:52;;;;;;;16.13;8.18;;;;;;;6.63;87.34;101703.09;20995591;28;20056;-71
2021/11/18 03:45:53;;;;;;;14.73;7.25;;;;;;;6.73;86.95;101719.78;20993882;28;20048;-70
2021/11/18 03:55:55;;;;;;;18.85;8.07;;;;;;;6.69;87.80;101737.91;20995786;28;20044;-70
2021/11/18 04:05:57;;;;;;;14.30;7.88;;;;;;;6.69;87.96;101753.53;20994487;28;20071;-70
2021/11/18 04:15:59;;;;;;;18.42;9.82;;;;;;;6.70;88.23;101746.59;20993977;28;20405;-71
2021/11/18 04:26:04;;;;;;;18.75;8.85;;;;;;;6.65;87.98;101741.28;20992837;28;20114;-71
2021/11/18 04:36:09;;;;;;;17.63;9.07;;;;;;;6.58;88.69;101747.22;20992755;28;20497;-71
2021/11/18 04:46:13;;;;;;;13.48;7.57;;;;;;;6.38;88.44;101770.19;20992547;28;20432;-71
2021/11/18 04:56:15;;;;;;;18.20;8.85;;;;;;;6.26;88.94;101761.22;20992107;28;20044;-71
2021/11/18 05:06:19;;;;;;;15.95;8.52;;;;;;;6.12;89.11;101766.06;20989540;28;20574;-71
2021/11/18 05:16:21;;;;;;;13.00;8.02;;;;;;;6.04;89.89;101772.84;20990495;28;20535;-70
2021/11/18 05:26:23;;;;;;;14.38;7.65;;;;;;;5.89;90.13;101794.97;20988714;28;20052;-70
2021/11/18 05:36:26;;;;;;;16.58;7.60;;;;;;;5.84;90.52;101786.13;20986890;28;20094;-70
2021/11/18 05:46:28;;;;;;;13.27;7.28;;;;;;;5.63;90.90;101790.78;20988131;28;20045;-71
2021/11/18 05:56:29;;;;;;;14.88;7.93;;;;;;;5.54;92.16;101783.63;20986477;28;20404;-71
2021/11/18 06:06:31;;;;;;;18.20;9.82;;;;;;;5.44;91.73;101789.41;20985334;28;20110;-71
2021/11/18 06:16:33;;;;;;;20.92;11.60;;;;;;;5.38;91.74;101810.03;20984752;28;20114;-71
2021/11/18 06:26:35;;;;;;;16.65;8.90;;;;;;;5.31;92.59;101819.34;20984166;28;20056;-71
2021/11/18 06:36:36;;;;;;;16.13;9.52;;;;;;;5.25;92.71;101819.19;20983649;28;20045;-71
2021/11/18 06:46:38;;;;;;;18.45;11.60;;;;;;;5.21;92.29;101830.31;20987274;28;20049;-70
2021/11/18 06:56:40;;;;;;;17.73;9.80;;;;;;;5.17;93.12;101828.44;20985424;28;20090;-69
2021/11/18 07:06:42;;;;;;;19.42;10.23;;;;;;;5.18;93.34;101853.59;20982666;28;20053;-69
2021/11/18 07:16:44;;;;;;;18.38;9.40;;;;;;;5.17;93.54;101862.19;20964470;28;20045;-69
2021/11/18 07:26:46;;;;;;;20.02;10.68;;;;;;;5.24;93.79;101874.56;20981552;28;20124;-70
2021/11/18 07:36:48;;;;;;;17.70;9.30;;;;;;;5.29;93.88;101872.97;20979350;28;20048;-69
2021/11/18 07:46:51;;;;;;;19.27;10.88;;;;;;;5.41;93.72;101890.59;20964750;28;20045;-69
2021/11/18 07:56:53;;;;;;;24.98;12.45;;;;;;;5.61;93.74;101901.59;20918132;28;20041;-69
2021/11/18 08:06:56;;;;;;;24.10;11.90;;;;;;;5.84;93.16;101910.03;20940410;28;20052;-69
2021/11/18 08:17:01;;;;;;;20.27;10.23;;;;;;;6.10;92.67;101910.78;20953682;28;20482;-69
2021/11/18 08:27:03;;;;;;;22.58;11.57;;;;;;;6.33;91.65;101912.28;20952392;28;20044;-69
2021/11/18 08:37:06;;;;;;;18.77;10.35;;;;;;;6.60;90.84;101922.47;20950085;28;20106;-69
2021/11/18 08:47:10;;;;;;;14.85;8.77;;;;;;;7.00;89.22;101933.88;20902805;28;20091;-69
2021/11/18 08:57:13;;;;;;;14.93;8.53;;;;;;;7.29;87.89;101931.06;20902902;28;20387;-69
2021/11/18 09:07:14;;;;;;;15.35;7.88;;;;;;;7.60;86.93;101920.44;20899391;28;20048;-69
2021/11/18 09:17:16;;;;;;;16.55;8.68;;;;;;;7.89;84.26;101915.81;20964425;28;20448;-69
2021/11/18 09:27:28;;;;;;;15.85;8.82;;;;;;;8.30;83.10;101923.53;20982450;28;20048;-70
2021/11/18 09:37:30;;;;;;;17.70;9.27;;;;;;;8.28;81.40;101945.22;20981883;28;20052;-69
2021/11/18 09:47:58;;;;;;;17.98;9.48;;;;;;;8.55;80.88;101939.66;20981049;28;20052;-69
2021/11/18 09:57:59;;;;;;;17.00;9.48;;;;;;;8.74;79.28;101946.94;20980125;28;20056;-69
2021/11/18 10:08:12;;;;;;;16.65;9.60;;;;;;;8.77;78.68;101949.63;20977110;28;20056;-69
2021/11/18 10:18:20;;;;;;;17.80;9.73;;;;;;;8.69;78.72;101928.59;20907361;28;20445;-70
2021/11/18 10:28:22;;;;;;;17.63;9.90;;;;;;;8.91;78.86;101928.91;20894890;28;20534;-70
2021/11/18 10:38:36;;;;;;;19.70;11.15;;;;;;;9.00;78.00;101913.38;20893251;28;20049;-69
2021/11/18 10:48:53;;;;;;;22.33;11.00;;;;;;;9.17;77.08;101926.72;20892848;28;20418;-69
2021/11/18 10:59:09;;;;;;;20.70;10.52;;;;;;;9.23;76.95;101905.88;20893097;28;20049;-70
2021/11/18 11:09:36;;;;;;;23.75;11.73;;;;;;;9.51;75.29;101892.31;20891821;28;20128;-69
2021/11/18 11:19:56;;;;;;;18.17;10.77;;;;;;;9.31;76.15;101906.88;20975220;28;20072;-70
2021/11/18 11:30:18;;;;;;;23.92;11.38;;;;;;;9.18;75.72;101902.34;20975494;28;20056;-71
2021/11/18 11:40:51;;;;;;;20.45;11.27;;;;;;;9.34;75.71;101893.88;20942685;28;20045;-69
2021/11/18 11:51:28;;;;;;;24.88;11.32;;;;;;;9.73;74.73;101901.31;20939606;28;20060;-69
2021/11/18 12:01:38;;;;;;;23.35;11.68;;;;;;;9.74;73.52;101899.59;20989087;28;20053;-70
2021/11/18 12:11:57;;;;;;;30.48;11.93;;;;;;;9.60;73.87;101896.81;20974987;28;20051;-70
2021/11/18 12:22:00;;;;;;;20.90;11.10;;;;;;;9.71;73.54;101899.53;20905728;28;20421;-70
2021/11/18 12:32:08;;;;;;;24.42;11.00;;;;;;;9.81;72.11;101879.59;20903614;28;20245;-69
2021/11/18 12:42:37;;;;;;;21.02;10.70;;;;;;;9.73;72.73;101882.16;20904060;28;20049;-72
2021/11/18 12:53:29;;;;;;;18.20;9.82;;;;;;;9.60;71.39;101875.00;20902552;28;20053;-71
2021/11/18 13:03:51;;;;;;;19.95;10.63;;;;;;;9.37;73.45;101866.88;20906123;28;20051;-71
2021/11/18 13:14:08;;;;;;;23.15;10.25;;;;;;;9.33;74.90;101867.69;20938896;28;20048;-70
2021/11/18 13:24:10;;;;;;;23.25;11.63;;;;;;;9.19;74.90;101857.03;20929835;28;20044;-68
2021/11/18 13:34:22;;;;;;;24.30;11.85;;;;;;;9.09;76.18;101849.94;20897188;28;20457;-68
2021/11/18 13:44:35;;;;;;;22.48;11.52;;;;;;;9.03;75.33;101849.88;20897959;28;20079;-68
2021/11/18 13:54:50;;;;;;;20.77;10.05;;;;;;;9.03;75.75;101834.19;20898419;28;20045;-68
2021/11/18 14:05:06;;;;;;;22.53;11.97;;;;;;;9.09;75.52;101823.81;20897032;28;20052;-68
2021/11/18 14:15:26;;;;;;;26.42;12.23;;;;;;;9.19;75.28;101818.72;20940809;28;20472;-68
2021/11/18 14:25:36;;;;;;;24.48;12.63;;;;;;;9.12;73.91;101806.44;20978366;28;20056;-69
2021/11/18 14:35:54;;;;;;;22.27;11.15;;;;;;;9.09;73.34;101802.91;20976680;28;20057;-69
2021/11/18 14:46:14;;;;;;;20.73;9.50;;;;;;;8.90;74.70;101822.69;20978012;28;20057;-68
2021/11/18 14:56:19;;;;;;;19.02;9.32;;;;;;;8.88;75.09;101833.13;20976849;28;20492;-69
2021/11/18 15:06:26;;;;;;;26.40;10.27;;;;;;;8.85;75.54;101848.75;20974825;28;20044;-68
2021/11/18 15:16:28;;;;;;;18.55;8.93;;;;;;;8.76;75.14;101848.59;20944867;28;20059;-70
2021/11/18 15:26:32;;;;;;;22.67;9.60;;;;;;;8.68;76.19;101837.19;20972948;28;20433;-68
2021/11/18 15:36:33;;;;;;;15.55;7.75;;;;;;;8.62;75.62;101848.38;20974484;28;20102;-69
2021/11/18 15:46:39;;;;;;;16.77;6.55;;;;;;;8.59;75.01;101844.88;20974516;28;20417;-68
2021/11/18 15:56:43;;;;;;;14.52;6.70;;;;;;;8.58;75.35;101845.75;20972811;28;20057;-74
2021/11/18 16:06:44;;;;;;;13.85;6.47;;;;;;;8.42;76.34;101868.09;20972920;28;20094;-73
2021/11/18 16:16:52;;;;;;;13.30;6.47;;;;;;;8.34;76.41;101877.50;20973871;28;20170;-74
2021/11/18 16:26:55;;;;;;;16.35;7.18;;;;;;;8.31;76.55;101893.09;20986287;28;20052;-73
2021/11/18 16:37:05;;;;;;;14.05;5.97;;;;;;;8.28;75.69;101891.31;20985444;28;20086;-73
2021/11/18 16:47:11;;;;;;;14.95;6.05;;;;;;;8.28;77.13;101903.47;20983882;28;20056;-73
2021/11/18 16:57:15;;;;;;;12.25;5.55;;;;;;;8.27;76.84;101892.16;20984040;28;20117;-73
2021/11/18 17:07:17;;;;;;;;;;;;;;;8.23;76.46;101893.81;20983806;28;20080;-74
2021/11/18 17:17:21;;;;;;;11.63;5.85;;;;;;;8.14;76.83;101903.22;20919765;28;19967;-73
2021/11/18 17:27:25;;;;;;;13.38;5.68;;;;;;;7.77;78.13;101906.88;20900954;28;20128;-72
2021/11/18 17:37:29;;;;;;;14.27;6.10;;;;;;;7.41;79.85;101920.88;20903112;28;20106;-72
2021/11/18 17:47:34;;;;;;;15.32;6.15;;;;;;;7.19;80.52;101935.19;20899835;28;20106;-73
2021/11/18 17:57:35;;;;;;;13.40;7.30;;;;;;;6.98;81.25;101950.28;20897537;28;20045;-72
2021/11/18 18:07:37;;;;;;;20.13;8.65;;;;;;;6.76;82.50;101939.38;20926469;28;20049;-74
2021/11/18 18:17:41;;;;;;;17.27;9.40;;;;;;;6.51;83.55;101950.00;20977313;28;20401;-72
2021/11/18 18:27:45;;;;;;;20.45;11.82;;;;;;;6.30;84.21;101956.41;20976061;28;20060;-72
2021/11/18 18:37:47;;;;;;;28.40;17.60;;;;;;;6.14;84.75;101951.63;20940216;28;20480;-72
2021/11/18 18:47:52;;;;;;;35.67;14.57;;;;;;;5.99;84.99;101964.19;20892117;28;20509;-72
2021/11/18 18:57:54;;;;;;;24.90;17.05;;;;;;;5.86;85.61;101970.75;20874321;28;20053;-72
2021/11/18 19:07:55;;;;;;;30.02;16.30;;;;;;;5.72;86.45;101957.34;20892133;28;20486;-73
2021/11/18 19:17:57;;;;;;;27.50;12.95;;;;;;;5.66;87.13;101952.88;20960063;28;20045;-72
2021/11/18 19:28:17;;;;;;;22.90;12.10;;;;;;;5.68;86.48;101957.22;20973582;28;20455;-72
2021/11/18 19:38:22;;;;;;;23.23;13.50;;;;;;;5.55;87.29;101968.94;20974142;28;20431;-73
2021/11/18 19:48:25;;;;;;;25.63;12.73;;;;;;;5.54;87.48;101967.19;20972993;28;20397;-73
2021/11/18 19:58:28;;;;;;;23.70;11.93;;;;;;;5.46;87.61;101979.06;20984097;28;20052;-73
2021/11/18 20:08:30;;;;;;;24.00;12.85;;;;;;;5.38;88.10;101982.31;20987605;28;20052;-73
2021/11/18 20:18:32;;;;;;;28.00;13.43;;;;;;;5.23;88.74;101975.78;20913863;28;20438;-72
2021/11/18 20:28:38;;;;;;;27.63;13.77;;;;;;;5.15;88.51;101978.13;20904027;28;20084;-72
2021/11/18 20:38:41;;;;;;;28.10;14.13;;;;;;;5.07;89.21;101980.47;20902562;28;20045;-73
2021/11/18 20:48:43;;;;;;;28.05;13.90;;;;;;;5.04;89.08;101977.78;20901920;28;20051;-73
2021/11/18 20:58:46;;;;;;;26.95;13.18;;;;;;;4.94;90.04;102004.28;20901236;28;20095;-73
2021/11/18 21:08:53;;;;;;;27.15;12.93;;;;;;;4.87;89.69;102003.19;20898990;28;20560;-73
2021/11/18 21:18:55;;;;;;;25.45;12.80;;;;;;;4.81;89.77;102000.38;20975898;28;20044;-73
2021/11/18 21:28:57;;;;;;;28.05;14.40;;;;;;;4.74;90.90;102007.91;20982427;28;20057;-72
2021/11/18 21:39:05;;;;;;;54.63;26.27;;;;;;;4.67;90.39;101993.84;20980696;28;20052;-74
2021/11/18 21:49:14;;;;;;;28.30;13.77;;;;;;;4.71;90.42;102000.91;20979439;28;20055;-75
2021/11/18 21:59:16;;;;;;;27.30;13.38;;;;;;;4.70;90.28;102004.34;20979701;28;20043;-68
2021/11/18 22:09:25;;;;;;;26.13;12.55;;;;;;;4.66;90.13;102015.44;20977615;28;20051;-69
2021/11/18 22:19:26;;;;;;;33.97;13.60;;;;;;;4.53;90.58;101990.78;20898133;28;20107;-69
2021/11/18 22:29:35;;;;;;;28.48;14.85;;;;;;;4.37;91.10;101999.75;20894353;28;20079;-68
2021/11/18 22:39:43;;;;;;;32.47;15.00;;;;;;;4.21;91.96;101986.19;20892739;28;20139;-70
2021/11/18 22:49:52;;;;;;;30.48;14.70;;;;;;;4.16;92.50;101998.09;20902721;28;20066;-69
2021/11/18 22:59:54;;;;;;;26.95;14.13;;;;;;;4.06;91.81;102002.94;20929599;28;20109;-69
2021/11/18 23:10:00;;;;;;;32.33;16.38;;;;;;;4.00;92.92;101996.66;20935361;28;20044;-70
2021/11/18 23:20:05;;;;;;;32.05;14.30;;;;;;;3.88;92.66;101996.19;20936292;28;20067;-70
2021/11/18 23:30:12;;;;;;;35.92;16.98;;;;;;;3.77;92.91;101986.31;20942799;28;20044;-68
2021/11/18 23:40:15;;;;;;;29.92;15.27;;;;;;;3.65;93.34;101987.59;20952370;28;20591;-69
2021/11/18 23:50:20;;;;;;;28.75;13.80;;;;;;;3.68;93.37;101983.38;20951009;28;20041;-69
